createdAt,value
2023-12-11T00:02:24.487Z,42
2023-12-11T00:07:40.852Z,38
2023-12-11T00:12:57.276Z,39
2023-12-11T00:18:13.721Z,49
2023-12-11T00:23:30.048Z,54
2023-12-11T00:28:46.413Z,61
2023-12-11T00:34:03.468Z,54
2023-12-11T00:39:20.355Z,45
2023-12-11T00:44:36.720Z,39
2023-12-11T00:49:53.898Z,47
2023-12-11T00:55:10.211Z,44
2023-12-11T01:00:26.478Z,45
2023-12-11T01:05:43.640Z,31
2023-12-11T01:10:59.238Z,35
2023-12-11T01:16:15.572Z,32
2023-12-11T01:21:31.746Z,35
2023-12-11T01:26:48.097Z,28
2023-12-11T01:32:04.492Z,29
2023-12-11T01:37:20.854Z,28
2023-12-11T01:42:37.327Z,27
2023-12-11T01:47:53.667Z,28
2023-12-11T01:53:09.958Z,32
2023-12-11T01:58:26.341Z,34
2023-12-11T02:03:42.866Z,43
2023-12-11T02:08:59.087Z,44
2023-12-11T02:14:15.476Z,40
2023-12-11T02:19:32.009Z,50
2023-12-11T02:24:48.324Z,41
2023-12-11T02:30:04.623Z,31
2023-12-11T02:35:20.998Z,29
2023-12-11T02:40:37.350Z,36
2023-12-11T02:45:53.788Z,40
2023-12-11T02:51:10.192Z,42
2023-12-11T02:56:26.253Z,42
2023-12-11T03:01:42.737Z,35
2023-12-11T03:06:59.024Z,33
2023-12-11T03:12:15.382Z,28
2023-12-11T03:17:31.912Z,28
2023-12-11T03:22:48.120Z,24
2023-12-11T03:28:04.619Z,29
2023-12-11T03:33:20.863Z,32
2023-12-11T03:38:37.225Z,29
2023-12-11T03:43:53.617Z,32
2023-12-11T03:49:09.842Z,29
2023-12-11T03:54:26.148Z,28
2023-12-11T03:59:42.510Z,24
2023-12-11T04:04:58.885Z,23
2023-12-11T04:10:15.435Z,26
2023-12-11T04:15:31.710Z,23
2023-12-11T04:20:47.975Z,21
2023-12-11T04:26:04.340Z,20
2023-12-11T04:31:20.706Z,35
2023-12-11T04:36:37.132Z,25
2023-12-11T04:41:53.441Z,23
2023-12-11T04:47:09.786Z,20
2023-12-11T04:52:26.156Z,28
2023-12-11T04:57:42.536Z,24
2023-12-11T05:02:58.918Z,35
2023-12-11T05:08:15.240Z,29
2023-12-11T05:13:32.093Z,32
2023-12-11T05:18:48.506Z,35
2023-12-11T05:24:04.792Z,28
2023-12-11T05:29:21.139Z,29
2023-12-11T05:34:37.609Z,38
2023-12-11T05:40:01.715Z,64
2023-12-11T05:45:10.913Z,43
2023-12-11T05:50:27.271Z,37
2023-12-11T05:55:43.654Z,58
2023-12-11T06:01:00.075Z,53
2023-12-11T06:06:16.395Z,48
2023-12-11T06:11:32.767Z,44
2023-12-11T06:16:48.888Z,44
2023-12-11T06:22:05.318Z,52
2023-12-11T06:27:21.689Z,66
2023-12-11T06:32:38.647Z,44
2023-12-11T06:37:55.012Z,42
2023-12-11T06:43:11.989Z,44
2023-12-11T06:48:28.407Z,59
2023-12-11T06:53:44.707Z,55
2023-12-11T06:59:01.054Z,36
2023-12-11T07:04:17.518Z,39
2023-12-11T07:09:33.747Z,32
2023-12-11T07:14:50.157Z,54
2023-12-11T07:20:06.646Z,34
2023-12-11T07:25:23.577Z,52
2023-12-11T07:30:39.901Z,27
2023-12-11T07:35:56.198Z,24
2023-12-11T07:41:12.578Z,36
2023-12-11T07:46:28.956Z,38
2023-12-11T07:51:45.186Z,54
2023-12-11T07:57:01.561Z,63
2023-12-11T08:02:18.017Z,51
2023-12-11T08:07:34.702Z,56
2023-12-11T08:12:50.786Z,52
2023-12-11T08:18:07.743Z,53
2023-12-11T08:23:24.073Z,56
2023-12-11T08:28:40.237Z,65
2023-12-11T08:33:56.931Z,60
2023-12-11T08:39:13.208Z,58
2023-12-11T08:44:29.613Z,54
2023-12-11T08:49:46.140Z,48
2023-12-11T08:55:02.521Z,44
2023-12-11T09:00:18.560Z,61
2023-12-11T09:05:34.961Z,64
2023-12-11T09:10:51.513Z,62
2023-12-11T09:16:07.955Z,59
2023-12-11T09:21:24.053Z,55
2023-12-11T09:26:40.458Z,59
2023-12-11T09:31:56.817Z,52
2023-12-11T09:37:13.884Z,58
2023-12-11T09:42:30.540Z,51
2023-12-11T09:47:47.153Z,48
2023-12-11T09:53:02.728Z,46
2023-12-11T09:58:19.084Z,53
2023-12-11T10:03:35.297Z,58
2023-12-11T10:08:51.572Z,42
2023-12-11T10:14:08.074Z,52
2023-12-11T10:19:24.968Z,66
2023-12-11T10:24:41.029Z,54
2023-12-11T10:29:57.301Z,47
2023-12-11T10:35:13.864Z,51
2023-12-11T10:40:30.614Z,50
2023-12-11T10:45:49.849Z,35
2023-12-11T10:51:03.097Z,56
2023-12-11T10:56:19.635Z,49
2023-12-11T11:01:36.003Z,47
2023-12-11T11:06:52.400Z,49
2023-12-11T11:12:08.461Z,50
2023-12-11T11:17:25.613Z,49
2023-12-11T16:39:23.260Z,74
2023-12-11T16:44:40.256Z,69
2023-12-11T16:50:06.168Z,76
2023-12-11T16:55:13.202Z,103
2023-12-11T17:00:29.793Z,78
2023-12-11T17:05:46.784Z,78
2023-12-11T17:11:03.249Z,87
2023-12-11T17:16:20.256Z,82
2023-12-11T17:21:36.452Z,58
2023-12-11T17:26:53.449Z,66
2023-12-11T17:32:10.457Z,64
2023-12-11T17:37:27.436Z,59
2023-12-11T17:42:44.394Z,60
2023-12-11T17:48:00.965Z,59
2023-12-11T17:53:17.764Z,77
2023-12-11T17:58:34.592Z,89
2023-12-11T18:03:50.918Z,83
2023-12-11T18:09:07.851Z,73
2023-12-11T18:14:24.863Z,77
2023-12-11T18:19:41.833Z,87
2023-12-11T18:24:57.991Z,79
2023-12-11T18:30:14.989Z,73
2023-12-11T18:35:31.244Z,69
2023-12-11T18:40:47.628Z,75
2023-12-11T18:46:04.439Z,76
2023-12-11T18:51:21.391Z,67
2023-12-11T18:56:37.908Z,81
2023-12-11T19:01:55.148Z,84
2023-12-11T19:07:12.142Z,74
2023-12-11T19:12:29.148Z,79
2023-12-11T19:17:46.232Z,77
2023-12-11T19:23:02.308Z,70
2023-12-11T19:28:18.494Z,69
2023-12-11T19:33:35.250Z,66
2023-12-11T19:38:52.280Z,81
2023-12-11T19:44:09.329Z,85
2023-12-11T19:49:25.546Z,77
2023-12-11T19:54:42.484Z,72
2023-12-11T19:59:59.674Z,187
2023-12-11T20:05:16.785Z,73
2023-12-11T20:10:33.743Z,71
2023-12-11T20:15:50.076Z,64
2023-12-11T20:21:06.974Z,67
2023-12-11T20:26:23.368Z,63
2023-12-11T20:31:39.893Z,82
2023-12-11T20:36:56.647Z,94
2023-12-11T20:42:12.797Z,86
2023-12-11T20:47:29.946Z,59
2023-12-11T20:52:46.554Z,55
2023-12-11T20:58:03.562Z,68
2023-12-11T21:03:19.839Z,62
2023-12-11T21:08:41.691Z,59
2023-12-11T21:13:52.904Z,62
2023-12-11T21:19:09.922Z,60
2023-12-11T21:24:26.255Z,64
2023-12-11T21:29:42.702Z,61
2023-12-11T22:22:43.657Z,51
2023-12-11T22:28:00.089Z,50
2023-12-11T22:33:16.576Z,41
2023-12-11T22:38:32.603Z,52
2023-12-11T22:43:48.981Z,44
2023-12-11T22:49:05.734Z,49
2023-12-11T22:54:22.337Z,59
2023-12-11T22:59:38.719Z,75
2023-12-11T23:04:54.997Z,62
2023-12-11T23:10:11.451Z,58
2023-12-11T23:15:27.828Z,66
2023-12-11T23:20:44.227Z,58
2023-12-11T23:26:05.031Z,48
2023-12-11T23:31:17.488Z,30
2023-12-11T23:36:33.843Z,30
2023-12-11T23:41:50.175Z,27
2023-12-11T23:47:06.587Z,46
2023-12-11T23:52:23.539Z,38
2023-12-11T23:57:39.865Z,37
